Time;durP1;ratioP1;P1;durP2;ratioP2;P2;SDS_P1;SDS_P2;PMS_P1;PMS_P2;Temp;Humidity;BMP_temperature;BMP_pressure;BME280_temperature;BME280_humidity;BME280_pressure;Samples;Min_cycle;Max_cycle;Signal;HPM_P1;HPM_P2
2022/08/01 00:01:39;;;;;;;1.90;1.50;;;20.30;57.60;;;;;;5073275;28;20115;-71
2022/08/01 00:04:05;;;;;;;4.47;1.83;;;20.30;57.80;;;;;;5072007;28;20381;-71
2022/08/01 00:06:31;;;;;;;5.38;1.77;;;20.30;58.10;;;;;;5072807;28;20024;-71
2022/08/01 00:08:56;;;;;;;4.05;1.98;;;20.20;57.90;;;;;;5073129;28;20016;-71
2022/08/01 00:11:22;;;;;;;2.17;1.75;;;20.20;58.20;;;;;;5073070;28;20381;-71
2022/08/01 00:13:47;;;;;;;2.47;1.92;;;20.10;58.30;;;;;;5073009;28;20032;-71
2022/08/01 00:16:13;;;;;;;2.22;1.80;;;20.00;58.40;;;;;;5072927;28;20028;-71
2022/08/01 00:18:39;;;;;;;3.72;1.60;;;20.00;59.40;;;;;;5072595;28;20108;-76
2022/08/01 00:21:04;;;;;;;2.28;1.90;;;20.00;58.80;;;;;;5073019;28;20056;-76
2022/08/01 00:23:31;;;;;;;1.63;1.52;;;20.00;58.90;;;;;;5073068;28;20069;-78
2022/08/01 00:25:56;;;;;;;2.42;2.00;;;20.00;58.90;;;;;;5073229;28;20107;-78
2022/08/01 00:28:22;;;;;;;3.22;1.58;;;20.00;58.80;;;;;;5071800;28;20258;-78
2022/08/01 00:30:47;;;;;;;3.13;1.90;;;19.90;58.90;;;;;;5073055;28;20447;-77
2022/08/01 00:33:13;;;;;;;1.52;1.42;;;19.90;59.40;;;;;;5072718;28;20079;-77
2022/08/01 00:35:39;;;;;;;1.58;1.40;;;19.90;59.30;;;;;;5071548;28;20024;-77
2022/08/01 00:38:04;;;;;;;2.67;1.58;;;19.90;59.20;;;;;;5073007;28;20028;-77
2022/08/01 00:40:30;;;;;;;2.03;1.58;;;19.80;59.30;;;;;;5072919;28;20025;-76
2022/08/01 00:42:55;;;;;;;4.22;1.60;;;19.70;59.50;;;;;;5072972;28;20025;-75
2022/08/01 00:45:21;;;;;;;3.17;1.60;;;19.70;59.70;;;;;;5072770;28;20055;-75
2022/08/01 00:47:46;;;;;;;4.78;2.08;;;19.70;59.70;;;;;;5072838;28;20033;-77
2022/08/01 00:50:12;;;;;;;2.70;1.67;;;19.70;59.60;;;;;;5072761;28;20027;-75
2022/08/01 00:52:39;;;;;;;1.75;1.50;;;19.70;59.70;;;;;;5072678;28;20465;-76
2022/08/01 00:55:06;;;;;;;1.67;1.58;;;19.70;59.90;;;;;;5072577;28;20052;-76
2022/08/01 00:57:32;;;;;;;2.05;1.52;;;19.60;60.10;;;;;;5072731;28;20028;-76
2022/08/01 00:59:57;;;;;;;2.47;1.60;;;19.50;60.60;;;;;;5072680;28;20055;-74
2022/08/01 01:02:23;;;;;;;2.90;1.40;;;19.40;60.80;;;;;;5072654;28;20044;-75
2022/08/01 01:04:48;;;;;;;2.28;1.60;;;19.40;60.90;;;;;;5072602;28;20024;-75
2022/08/01 01:07:25;;;;;;;3.42;1.33;;;19.40;60.90;;;;;;5072651;28;20025;-76
2022/08/01 01:10:04;;;;;;;2.60;1.58;;;19.30;61.30;;;;;;5072575;28;20447;-76
2022/08/01 01:12:55;;;;;;;1.73;1.50;;;19.30;61.40;;;;;;5072698;28;20119;-76
2022/08/01 01:15:44;;;;;;;3.13;1.52;;;19.30;61.30;;;;;;5072454;28;20028;-76
2022/08/01 01:18:45;;;;;;;3.08;1.63;;;19.20;61.40;;;;;;5072522;28;20044;-76
2022/08/01 01:21:14;;;;;;;2.08;1.60;;;19.20;61.60;;;;;;5073060;28;20040;-76
2022/08/01 01:24:13;;;;;;;5.00;1.80;;;19.10;61.70;;;;;;5075859;28;20473;-75
2022/08/01 01:27:07;;;;;;;4.07;1.67;;;19.20;61.70;;;;;;5076366;28;20032;-75
2022/08/01 01:29:45;;;;;;;2.22;1.80;;;19.30;61.40;;;;;;5076162;28;20021;-77
2022/08/01 01:32:22;;;;;;;1.98;1.48;;;19.20;61.70;;;;;;5075794;28;20440;-76
2022/08/01 01:34:50;;;;;;;2.15;1.45;;;19.10;61.70;;;;;;5075997;28;20025;-76
2022/08/01 01:37:19;;;;;;;6.65;1.65;;;19.10;62.10;;;;;;5076053;28;20096;-76
2022/08/01 01:39:48;;;;;;;1.67;1.58;;;19.20;62.00;;;;;;5076029;28;20358;-77
2022/08/01 01:42:14;;;;;;;1.92;1.52;;;19.20;61.80;;;;;;5075865;28;20031;-75
2022/08/01 01:44:41;;;;;;;2.20;1.70;;;19.10;62.20;;;;;;5075743;28;20032;-76
2022/08/01 01:47:06;;;;;;;2.00;1.67;;;19.00;62.40;;;;;;5075790;28;20107;-77
2022/08/01 01:49:34;;;;;;;2.25;1.40;;;19.00;62.70;;;;;;5075705;28;20052;-76
2022/08/01 01:52:01;;;;;;;3.80;1.60;;;18.90;62.90;;;;;;5075599;28;20144;-71
2022/08/01 01:54:34;;;;;;;3.17;1.80;;;19.00;62.80;;;;;;5075858;28;20103;-70
2022/08/01 01:57:03;;;;;;;3.80;1.73;;;19.00;63.00;;;;;;5075614;28;20426;-70
2022/08/01 01:59:32;;;;;;;2.05;1.40;;;18.90;63.10;;;;;;5074316;28;20029;-71
2022/08/01 02:02:02;;;;;;;1.83;1.50;;;18.90;63.20;;;;;;5075517;28;20165;-71
2022/08/01 02:04:28;;;;;;;2.15;1.67;;;18.90;63.30;;;;;;5075524;28;20024;-75
2022/08/01 02:06:55;;;;;;;2.75;1.75;;;18.80;63.40;;;;;;5075437;28;20099;-76
2022/08/01 02:09:23;;;;;;;2.30;2.08;;;18.70;63.80;;;;;;5075338;28;20117;-73
2022/08/01 02:11:49;;;;;;;2.40;1.73;;;18.70;64.10;;;;;;5074079;28;20111;-76
2022/08/01 02:14:18;;;;;;;4.18;2.05;;;18.60;64.50;;;;;;5075399;28;20025;-72
2022/08/01 02:16:47;;;;;;;3.05;1.90;;;18.50;64.80;;;;;;5075330;28;20021;-72
2022/08/01 02:19:13;;;;;;;2.40;1.88;;;18.50;65.30;;;;;;5075315;28;20021;-70
2022/08/01 02:22:00;;;;;;;1.77;1.63;;;18.50;65.30;;;;;;5075197;28;20060;-72
2022/08/01 02:24:38;;;;;;;2.55;1.63;;;18.50;65.50;;;;;;5075116;28;20024;-70
2022/08/01 02:27:11;;;;;;;2.38;1.60;;;18.60;65.10;;;;;;5075134;28;20029;-70
2022/08/01 02:29:41;;;;;;;3.63;1.60;;;18.60;65.00;;;;;;5075011;28;20047;-70
2022/08/01 02:32:11;;;;;;;2.33;1.50;;;18.50;65.00;;;;;;5074770;28;20448;-71
2022/08/01 02:34:36;;;;;;;3.45;1.58;;;18.50;65.10;;;;;;5074837;28;20416;-70
2022/08/01 02:37:03;;;;;;;6.00;2.50;;;18.50;65.20;;;;;;5073573;28;20085;-70
2022/08/01 02:39:31;;;;;;;3.40;2.03;;;18.40;65.30;;;;;;5074832;28;20500;-70
2022/08/01 02:42:03;;;;;;;2.88;1.92;;;18.40;65.70;;;;;;5074815;28;20036;-70
2022/08/01 02:44:32;;;;;;;2.53;1.67;;;18.40;65.80;;;;;;5074778;28;20099;-70
2022/08/01 02:47:02;;;;;;;4.53;2.15;;;18.30;66.30;;;;;;5074601;28;20051;-70
2022/08/01 02:49:32;;;;;;;1.90;1.60;;;18.30;65.90;;;;;;5074671;28;20060;-70
2022/08/01 02:52:01;;;;;;;6.35;2.20;;;18.30;66.20;;;;;;5074512;28;20029;-70
2022/08/01 02:54:29;;;;;;;4.75;2.25;;;18.30;66.10;;;;;;5074549;28;20025;-70
2022/08/01 02:56:55;;;;;;;2.53;2.10;;;18.20;66.30;;;;;;5074451;28;20488;-70
2022/08/01 02:59:25;;;;;;;3.40;1.70;;;18.20;66.30;;;;;;5074347;28;20032;-70
2022/08/01 03:01:53;;;;;;;3.38;1.98;;;18.10;66.50;;;;;;5074296;28;20032;-69
2022/08/01 03:04:20;;;;;;;2.38;1.85;;;18.10;66.60;;;;;;5074173;28;20035;-70
2022/08/01 03:06:46;;;;;;;2.38;2.00;;;18.10;66.90;;;;;;5074309;28;20032;-70
2022/08/01 03:09:14;;;;;;;4.82;1.98;;;18.10;66.80;;;;;;5074293;28;20076;-70
2022/08/01 03:11:42;;;;;;;4.63;2.05;;;18.00;66.90;;;;;;5074179;28;20082;-71
2022/08/01 03:14:09;;;;;;;2.60;2.05;;;18.00;67.00;;;;;;5074026;28;20032;-71
2022/08/01 03:16:37;;;;;;;4.32;1.88;;;18.00;66.90;;;;;;5074058;28;20119;-70
2022/08/01 03:19:04;;;;;;;3.78;1.88;;;18.00;67.10;;;;;;5073944;28;20036;-70
2022/08/01 03:21:31;;;;;;;2.53;1.90;;;18.10;67.00;;;;;;5073948;28;20086;-70
2022/08/01 03:23:59;;;;;;;5.15;2.40;;;18.10;67.00;;;;;;5073933;28;20509;-71
2022/08/01 03:26:30;;;;;;;2.50;2.20;;;18.00;67.00;;;;;;5073734;28;20527;-70
2022/08/01 03:29:01;;;;;;;5.28;2.30;;;18.00;67.10;;;;;;5074003;28;20034;-70
2022/08/01 03:31:28;;;;;;;3.38;2.05;;;18.00;67.00;;;;;;5073678;28;20566;-71
2022/08/01 03:33:54;;;;;;;3.92;2.20;;;18.00;67.20;;;;;;5073618;28;20043;-71
2022/08/01 03:36:28;;;;;;;4.05;2.20;;;18.00;67.20;;;;;;5072443;28;20388;-70
2022/08/01 03:38:57;;;;;;;3.22;2.35;;;17.90;67.40;;;;;;5073640;28;20071;-70
2022/08/01 03:41:26;;;;;;;3.78;2.47;;;17.90;67.60;;;;;;5073129;28;20419;-70
2022/08/01 03:44:03;;;;;;;4.40;2.58;;;17.80;68.00;;;;;;5073218;28;20401;-70
2022/08/01 03:46:49;;;;;;;3.28;2.65;;;17.80;68.10;;;;;;5073430;28;20075;-70
2022/08/01 03:49:21;;;;;;;2.67;2.38;;;17.70;68.80;;;;;;5073452;28;20115;-71
2022/08/01 03:51:49;;;;;;;2.60;2.22;;;17.50;69.40;;;;;;5073207;28;20388;-70
2022/08/01 03:54:20;;;;;;;6.78;2.83;;;17.50;69.60;;;;;;5073213;28;20029;-70
2022/08/01 03:56:48;;;;;;;5.00;2.70;;;17.50;69.70;;;;;;5073251;28;20024;-71
2022/08/01 03:59:16;;;;;;;3.40;2.55;;;17.50;69.60;;;;;;5073204;28;20028;-70
2022/08/01 04:01:42;;;;;;;4.40;2.63;;;17.50;69.80;;;;;;5073075;28;20016;-70
2022/08/01 04:04:08;;;;;;;5.47;2.78;;;17.50;69.80;;;;;;5072984;28;20028;-71
2022/08/01 04:06:36;;;;;;;3.83;2.60;;;17.40;70.10;;;;;;5073215;28;20028;-71
2022/08/01 04:09:02;;;;;;;9.73;3.08;;;17.40;70.30;;;;;;5073082;28;20055;-70
2022/08/01 04:11:28;;;;;;;4.47;2.58;;;17.50;70.20;;;;;;5073187;28;20021;-71
2022/08/01 04:13:54;;;;;;;6.35;2.67;;;17.50;70.10;;;;;;5072775;28;20428;-73
2022/08/01 04:16:20;;;;;;;3.08;2.78;;;17.60;70.00;;;;;;5072758;28;20557;-71
2022/08/01 04:18:46;;;;;;;5.15;2.67;;;17.60;69.90;;;;;;5073004;28;20037;-71
2022/08/01 04:21:13;;;;;;;4.78;2.67;;;17.70;69.70;;;;;;5071637;28;20054;-70
2022/08/01 04:23:41;;;;;;;2.83;2.40;;;17.70;69.30;;;;;;5072880;28;20021;-70
2022/08/01 04:26:08;;;;;;;4.13;2.40;;;17.70;69.30;;;;;;5072804;28;20056;-71
2022/08/01 04:28:35;;;;;;;3.88;2.50;;;17.70;69.40;;;;;;5072849;28;20095;-71
2022/08/01 04:31:05;;;;;;;12.38;3.50;;;17.80;69.20;;;;;;5072881;28;20489;-70
2022/08/01 04:33:36;;;;;;;6.50;2.97;;;17.80;69.20;;;;;;5072636;28;20507;-70
2022/08/01 04:36:04;;;;;;;5.30;2.75;;;17.90;69.10;;;;;;5072888;28;20028;-70
2022/08/01 04:38:33;;;;;;;4.10;3.05;;;17.90;69.10;;;;;;5072912;28;20090;-70
2022/08/01 04:41:01;;;;;;;3.50;2.63;;;17.90;69.00;;;;;;5072841;28;20032;-70
2022/08/01 04:43:26;;;;;;;8.48;2.95;;;17.90;69.20;;;;;;5072655;28;20074;-70
2022/08/01 04:45:53;;;;;;;3.33;2.83;;;18.00;69.30;;;;;;5072603;28;20032;-69
2022/08/01 04:48:19;;;;;;;3.47;3.17;;;17.90;69.20;;;;;;5072501;28;20032;-70
2022/08/01 04:50:45;;;;;;;3.00;2.58;;;18.00;69.10;;;;;;5072429;28;20017;-70
2022/08/01 04:53:19;;;;;;;6.13;3.08;;;18.10;69.10;;;;;;5072534;28;20484;-70
2022/08/01 04:55:48;;;;;;;5.43;3.25;;;18.20;68.50;;;;;;5076738;28;20078;-70
2022/08/01 04:58:15;;;;;;;4.43;2.55;;;18.40;68.10;;;;;;5076512;28;20029;-71
2022/08/01 05:00:41;;;;;;;6.57;3.22;;;18.40;67.60;;;;;;5076525;28;20032;-70
2022/08/01 05:03:07;;;;;;;6.15;3.33;;;18.50;67.30;;;;;;5076542;28;20025;-71
2022/08/01 05:05:32;;;;;;;6.05;2.92;;;18.50;67.20;;;;;;5076277;28;20027;-71
2022/08/01 05:07:58;;;;;;;3.78;2.80;;;18.40;67.50;;;;;;5076396;28;20109;-72
2022/08/01 05:10:23;;;;;;;3.53;3.20;;;18.50;67.60;;;;;;5076222;28;20021;-70
2022/08/01 05:12:49;;;;;;;6.43;3.08;;;18.60;67.20;;;;;;5075996;28;20489;-70
2022/08/01 05:15:16;;;;;;;5.95;3.83;;;18.60;67.20;;;;;;5076193;28;20028;-70
2022/08/01 05:17:44;;;;;;;7.28;3.22;;;18.70;67.10;;;;;;5076238;28;20515;-69
2022/08/01 05:20:11;;;;;;;5.25;3.08;;;18.70;67.00;;;;;;5075977;28;20035;-70
2022/08/01 05:22:37;;;;;;;4.72;3.10;;;18.80;66.80;;;;;;5074702;28;20032;-70
2022/08/01 05:25:04;;;;;;;3.97;3.00;;;18.90;66.60;;;;;;5075664;28;20042;-70
2022/08/01 05:27:31;;;;;;;3.75;2.80;;;19.00;66.30;;;;;;5075222;28;20028;-70
2022/08/01 05:29:56;;;;;;;5.15;3.53;;;19.20;65.90;;;;;;5075614;28;20039;-70
2022/08/01 05:32:22;;;;;;;5.85;3.22;;;19.20;65.70;;;;;;5075457;28;20064;-70
2022/08/01 05:34:48;;;;;;;4.35;3.35;;;19.30;65.80;;;;;;5075747;28;20104;-71
2022/08/01 05:37:13;;;;;;;5.63;3.60;;;19.40;66.30;;;;;;5075743;28;20047;-70
2022/08/01 05:39:39;;;;;;;4.80;3.28;;;19.50;65.10;;;;;;5075762;28;20131;-70
2022/08/01 05:42:05;;;;;;;4.20;3.20;;;19.60;64.70;;;;;;5075660;28;20407;-70
2022/08/01 05:44:31;;;;;;;6.40;3.40;;;19.80;64.50;;;;;;5075676;28;20031;-71
2022/08/01 05:46:56;;;;;;;4.43;3.03;;;19.90;64.30;;;;;;5075735;28;20013;-71
2022/08/01 05:49:22;;;;;;;3.95;3.03;;;20.00;64.00;;;;;;5075577;28;20480;-72
2022/08/01 05:51:47;;;;;;;6.13;3.42;;;20.10;63.90;;;;;;5075619;28;20029;-71
2022/08/01 05:54:13;;;;;;;3.17;2.78;;;20.20;63.70;;;;;;5075391;28;20056;-71
2022/08/01 05:56:38;;;;;;;3.78;3.03;;;20.30;63.50;;;;;;5075522;28;20146;-72
2022/08/01 05:59:04;;;;;;;3.35;2.80;;;20.40;63.30;;;;;;5075425;28;20020;-71
2022/08/01 06:01:29;;;;;;;4.38;2.92;;;20.50;63.20;;;;;;5075509;28;20028;-71
2022/08/01 06:03:55;;;;;;;3.90;3.22;;;20.50;63.00;;;;;;5075292;28;20103;-70
2022/08/01 06:06:22;;;;;;;3.55;3.00;;;20.60;62.90;;;;;;5074961;28;20109;-70
2022/08/01 06:08:47;;;;;;;5.90;3.00;;;20.70;62.60;;;;;;5075293;28;20016;-70
2022/08/01 06:11:13;;;;;;;5.38;2.67;;;20.80;62.50;;;;;;5075170;28;20548;-70
2022/08/01 06:13:39;;;;;;;3.70;2.85;;;20.90;62.50;;;;;;5075143;28;20043;-70
2022/08/01 06:16:05;;;;;;;6.18;3.38;;;21.10;62.00;;;;;;5074877;28;20032;-70
2022/08/01 06:18:30;;;;;;;5.20;2.60;;;21.20;61.60;;;;;;5075191;28;20032;-72
2022/08/01 06:20:56;;;;;;;4.25;3.03;;;21.30;61.20;;;;;;5074920;28;20483;-71
2022/08/01 06:23:22;;;;;;;3.25;2.88;;;21.40;60.60;;;;;;5074814;28;20024;-71
2022/08/01 06:25:48;;;;;;;4.55;2.70;;;21.50;60.40;;;;;;5074726;28;20074;-70
2022/08/01 06:28:14;;;;;;;3.58;2.60;;;21.60;60.10;;;;;;5074944;28;20013;-70
2022/08/01 06:30:39;;;;;;;2.60;2.40;;;21.80;59.30;;;;;;5074630;28;20043;-71
2022/08/01 06:33:05;;;;;;;2.58;2.35;;;21.90;59.00;;;;;;5074687;28;20052;-70
2022/08/01 06:35:31;;;;;;;3.47;2.85;;;21.90;58.70;;;;;;5074765;28;20077;-69
2022/08/01 06:37:57;;;;;;;4.07;2.30;;;22.10;58.30;;;;;;5074788;28;20085;-70
2022/08/01 06:40:23;;;;;;;3.08;2.10;;;22.20;57.80;;;;;;5073131;28;20016;-70
2022/08/01 06:42:49;;;;;;;2.40;1.90;;;22.40;58.30;;;;;;5074651;28;20032;-70
2022/08/01 06:45:15;;;;;;;3.92;2.35;;;22.60;56.90;;;;;;5074398;28;20031;-71
2022/08/01 06:47:43;;;;;;;2.88;1.65;;;22.70;56.30;;;;;;5074447;28;20040;-70
2022/08/01 06:50:09;;;;;;;8.60;3.35;;;22.80;55.80;;;;;;5074381;28;20052;-71
2022/08/01 06:52:35;;;;;;;6.50;3.13;;;23.00;55.10;;;;;;5074307;28;20107;-71
2022/08/01 06:55:02;;;;;;;8.68;2.65;;;23.20;54.50;;;;;;5074325;28;20055;-70
2022/08/01 06:57:27;;;;;;;13.07;4.22;;;23.20;53.80;;;;;;5074366;28;20028;-71
2022/08/01 06:59:53;;;;;;;3.90;1.98;;;23.40;53.70;;;;;;5072884;28;20031;-72
2022/08/01 07:02:19;;;;;;;22.35;3.42;;;23.40;53.10;;;;;;5074103;28;20063;-71
2022/08/01 07:04:45;;;;;;;8.10;3.30;;;23.20;54.00;;;;;;5074084;28;20454;-73
2022/08/01 07:07:10;;;;;;;4.45;3.10;;;23.30;53.80;;;;;;5074043;28;20076;-72
2022/08/01 07:09:36;;;;;;;3.75;3.15;;;23.20;54.50;;;;;;5073886;28;20074;-72
2022/08/01 07:12:02;;;;;;;6.82;3.60;;;23.20;54.60;;;;;;5074015;28;20036;-71
2022/08/01 07:14:28;;;;;;;4.60;3.00;;;23.20;54.40;;;;;;5073788;28;20501;-71
2022/08/01 07:16:53;;;;;;;3.00;2.70;;;23.10;54.80;;;;;;5073007;28;20096;-71
2022/08/01 07:19:19;;;;;;;2.88;2.67;;;23.00;54.60;;;;;;5073493;28;20028;-72
2022/08/01 07:21:45;;;;;;;4.10;3.00;;;23.10;54.70;;;;;;5073529;28;20116;-73
2022/08/01 07:24:13;;;;;;;3.85;3.45;;;23.30;53.90;;;;;;5072119;28;20062;-71
2022/08/01 07:26:42;;;;;;;5.53;3.38;;;23.40;54.00;;;;;;5073675;28;20020;-71
2022/08/01 07:29:08;;;;;;;4.35;3.30;;;23.50;54.00;;;;;;5073529;28;20035;-70
2022/08/01 07:31:34;;;;;;;3.75;3.00;;;23.50;54.10;;;;;;5073261;28;20024;-70
2022/08/01 07:33:59;;;;;;;3.90;3.50;;;23.30;54.20;;;;;;5073476;28;20491;-70
2022/08/01 07:36:25;;;;;;;4.32;3.20;;;23.40;54.10;;;;;;5073288;28;20016;-71
2022/08/01 07:38:50;;;;;;;5.55;4.47;;;23.50;53.90;;;;;;5071958;28;20035;-70
2022/08/01 07:41:16;;;;;;;5.20;3.70;;;23.50;53.70;;;;;;5073453;28;20035;-70
2022/08/01 07:43:41;;;;;;;3.95;3.47;;;23.60;53.50;;;;;;5073188;28;20435;-70
2022/08/01 07:46:07;;;;;;;4.93;3.60;;;23.70;52.80;;;;;;5073325;28;20111;-70
2022/08/01 07:48:33;;;;;;;5.40;3.55;;;23.90;52.30;;;;;;5072986;28;20511;-70
2022/08/01 07:50:59;;;;;;;4.97;3.47;;;23.90;52.90;;;;;;5072976;28;20508;-70
2022/08/01 07:53:25;;;;;;;6.72;3.63;;;24.00;52.70;;;;;;5072854;28;20111;-69
2022/08/01 07:55:50;;;;;;;7.18;3.58;;;23.80;53.00;;;;;;5073373;28;20027;-70
2022/08/01 07:58:16;;;;;;;5.07;3.25;;;23.80;52.80;;;;;;5073224;28;20369;-71
2022/08/01 08:00:42;;;;;;;4.72;3.35;;;23.90;52.20;;;;;;5072975;28;20032;-70
2022/08/01 08:03:08;;;;;;;5.88;3.40;;;23.80;51.60;;;;;;5073061;28;20031;-69
2022/08/01 08:05:35;;;;;;;7.75;3.88;;;23.80;51.50;;;;;;5072891;28;20117;-70
2022/08/01 08:08:02;;;;;;;5.32;3.30;;;24.00;52.20;;;;;;5072541;28;20033;-70
2022/08/01 08:10:27;;;;;;;5.55;3.58;;;24.20;51.20;;;;;;5071424;28;20024;-70
2022/08/01 08:12:53;;;;;;;7.88;3.45;;;24.20;51.10;;;;;;5072608;28;20028;-70
2022/08/01 08:15:18;;;;;;;4.88;3.78;;;24.20;50.40;;;;;;5072702;28;20025;-70
2022/08/01 08:17:44;;;;;;;3.60;3.25;;;24.10;51.60;;;;;;5072429;28;20100;-69
2022/08/01 08:20:10;;;;;;;7.30;3.47;;;24.20;51.10;;;;;;5073813;28;20382;-70
2022/08/01 08:22:36;;;;;;;4.35;3.50;;;24.10;51.30;;;;;;5072778;28;20052;-69
2022/08/01 08:25:02;;;;;;;4.60;3.30;;;24.10;51.40;;;;;;5072525;28;20036;-70
2022/08/01 08:27:27;;;;;;;8.13;4.03;;;24.30;50.60;;;;;;5072289;28;20020;-71
2022/08/01 08:29:53;;;;;;;4.10;3.58;;;24.30;50.00;;;;;;5072357;28;20107;-70
2022/08/01 08:32:18;;;;;;;4.72;3.35;;;24.30;51.00;;;;;;5072458;28;20048;-69
2022/08/01 08:34:44;;;;;;;7.45;4.00;;;24.40;50.70;;;;;;5072386;28;20025;-70
2022/08/01 08:37:10;;;;;;;7.22;3.88;;;24.50;50.20;;;;;;5072507;28;20434;-69
2022/08/01 08:39:35;;;;;;;7.93;3.97;;;24.30;50.50;;;;;;5072600;28;20458;-70
2022/08/01 08:42:05;;;;;;;3.45;3.03;;;24.40;51.10;;;;;;5072810;28;20036;-70
2022/08/01 08:44:31;;;;;;;4.22;3.05;;;24.50;49.20;;;;;;5072309;28;20484;-70
2022/08/01 08:46:57;;;;;;;5.88;3.70;;;24.60;49.10;;;;;;5072636;28;20047;-70
2022/08/01 08:49:28;;;;;;;4.55;3.35;;;24.60;49.00;;;;;;5072102;28;20543;-70
2022/08/01 08:51:58;;;;;;;5.35;3.42;;;24.60;49.40;;;;;;5072161;28;20094;-70
2022/08/01 08:54:25;;;;;;;5.30;3.35;;;24.90;48.90;;;;;;5072372;28;20032;-70
2022/08/01 08:56:52;;;;;;;8.65;3.30;;;24.80;48.30;;;;;;5072333;28;20074;-71
2022/08/01 08:59:18;;;;;;;7.22;3.10;;;24.80;47.80;;;;;;5072251;28;20025;-70
2022/08/01 09:01:44;;;;;;;5.88;3.25;;;25.00;47.90;;;;;;5072295;28;20078;-70
2022/08/01 09:04:11;;;;;;;4.88;3.20;;;25.10;47.10;;;;;;5072246;28;20102;-70
2022/08/01 09:06:36;;;;;;;4.40;3.60;;;25.30;46.60;;;;;;5072145;28;20032;-70
2022/08/01 09:09:03;;;;;;;4.05;3.08;;;25.50;45.90;;;;;;5072332;28;20358;-70
2022/08/01 09:11:28;;;;;;;7.85;3.53;;;25.50;45.50;;;;;;5072103;28;20029;-70
2022/08/01 09:14:22;;;;;;;8.20;3.28;;;25.60;45.00;;;;;;5072055;28;20098;-71
2022/08/01 09:16:58;;;;;;;4.32;3.92;;;25.50;45.20;;;;;;5072294;28;20016;-70
2022/08/01 09:19:24;;;;;;;4.53;3.60;;;25.70;45.10;;;;;;5072138;28;20473;-71
2022/08/01 09:21:58;;;;;;;7.93;3.60;;;25.70;45.30;;;;;;5072045;28;20031;-71
2022/08/01 09:24:28;;;;;;;3.42;3.03;;;25.90;45.00;;;;;;5072266;28;20086;-70
2022/08/01 09:26:54;;;;;;;4.57;3.17;;;25.90;43.40;;;;;;5072031;28;20414;-71
2022/08/01 09:29:23;;;;;;;4.88;3.13;;;25.90;43.70;;;;;;5071936;28;20021;-71
2022/08/01 09:31:49;;;;;;;4.43;3.22;;;25.90;44.40;;;;;;5071918;28;20071;-70
2022/08/01 09:34:16;;;;;;;4.60;3.30;;;25.90;43.20;;;;;;5072102;28;20048;-70
2022/08/01 09:36:56;;;;;;;3.03;2.72;;;25.90;43.00;;;;;;5071877;28;20468;-70
2022/08/01 09:39:36;;;;;;;5.70;2.88;;;26.00;43.20;;;;;;5071903;28;20085;-70
2022/08/01 09:42:22;;;;;;;4.35;3.10;;;26.20;43.00;;;;;;5075741;28;20099;-70
2022/08/01 09:44:47;;;;;;;4.38;3.05;;;26.30;41.40;;;;;;5075277;28;20473;-70
2022/08/01 09:47:14;;;;;;;7.03;2.90;;;26.50;41.70;;;;;;5075298;28;20036;-70
2022/08/01 09:49:40;;;;;;;5.18;3.03;;;26.60;41.60;;;;;;5075377;28;20081;-69
2022/08/01 09:52:20;;;;;;;4.00;2.72;;;26.50;41.80;;;;;;5075418;28;20071;-69
2022/08/01 09:55:00;;;;;;;6.18;3.17;;;26.70;42.00;;;;;;5075345;28;20020;-70
2022/08/01 09:57:26;;;;;;;4.30;2.85;;;26.90;40.80;;;;;;5075393;28;20029;-70
2022/08/01 09:59:54;;;;;;;3.83;2.90;;;27.20;40.20;;;;;;5075162;28;20024;-69
2022/08/01 10:02:28;;;;;;;8.90;3.13;;;27.20;40.30;;;;;;5074997;28;20448;-71
2022/08/01 10:04:54;;;;;;;4.43;2.78;;;27.30;39.90;;;;;;5074878;28;20095;-69
2022/08/01 10:07:21;;;;;;;3.55;2.60;;;27.50;38.80;;;;;;5074835;28;20039;-71
2022/08/01 10:09:48;;;;;;;3.45;2.55;;;27.50;38.30;;;;;;5074766;28;20028;-72
2022/08/01 10:12:16;;;;;;;4.15;2.75;;;27.40;38.60;;;;;;5074933;28;20088;-72
2022/08/01 10:14:45;;;;;;;4.35;2.50;;;27.50;38.10;;;;;;5074731;28;20028;-71
2022/08/01 10:17:16;;;;;;;3.17;2.72;;;27.40;38.50;;;;;;5074755;28;20354;-71
2022/08/01 10:19:43;;;;;;;4.38;2.50;;;27.20;39.20;;;;;;5074476;28;20421;-70
2022/08/01 10:22:10;;;;;;;4.43;2.30;;;27.30;38.30;;;;;;5074480;28;20026;-71
2022/08/01 10:24:40;;;;;;;3.15;2.38;;;27.40;38.10;;;;;;5074512;28;20392;-72
2022/08/01 10:27:09;;;;;;;2.67;2.42;;;27.50;37.80;;;;;;5074346;28;20366;-70
2022/08/01 10:29:57;;;;;;;3.17;2.30;;;27.90;37.70;;;;;;5074366;28;20036;-69
2022/08/01 10:32:23;;;;;;;2.40;2.15;;;28.10;36.20;;;;;;5074420;28;20048;-70
2022/08/01 10:34:53;;;;;;;3.33;2.70;;;28.50;36.00;;;;;;5074628;28;20420;-70
2022/08/01 10:37:19;;;;;;;2.58;2.30;;;28.60;36.00;;;;;;5074376;28;20059;-73
2022/08/01 10:39:44;;;;;;;2.20;2.10;;;28.40;36.50;;;;;;5074098;28;20048;-70
2022/08/01 10:42:11;;;;;;;4.78;2.22;;;28.70;36.80;;;;;;5074310;28;20031;-70
2022/08/01 10:44:38;;;;;;;3.90;2.53;;;29.00;35.80;;;;;;5073806;28;20473;-70
2022/08/01 10:47:13;;;;;;;2.95;2.60;;;29.20;34.40;;;;;;5074056;28;20470;-70
2022/08/01 10:49:50;;;;;;;4.50;2.60;;;28.90;34.00;;;;;;5074029;28;20073;-70
2022/08/01 10:52:19;;;;;;;6.25;2.40;;;29.00;35.00;;;;;;5073691;28;20437;-70
2022/08/01 10:54:46;;;;;;;4.43;2.40;;;29.10;34.70;;;;;;5074397;28;20031;-70
2022/08/01 10:57:12;;;;;;;2.95;2.47;;;28.90;34.20;;;;;;5074262;28;20045;-70
2022/08/01 10:59:51;;;;;;;2.75;2.20;;;28.80;33.60;;;;;;5074019;28;20405;-70
2022/08/01 11:02:31;;;;;;;2.75;2.10;;;28.80;33.80;;;;;;5073986;28;20069;-70
2022/08/01 11:05:09;;;;;;;4.63;2.65;;;28.70;33.70;;;;;;5073986;28;20027;-70
2022/08/01 11:07:51;;;;;;;4.63;2.30;;;28.50;34.30;;;;;;5073960;28;20103;-71
2022/08/01 11:10:35;;;;;;;2.33;2.05;;;28.20;35.20;;;;;;5073903;28;20401;-71
2022/08/01 11:13:03;;;;;;;2.72;2.15;;;28.20;35.70;;;;;;5072406;28;20040;-71
2022/08/01 11:15:29;;;;;;;3.97;2.55;;;28.40;35.20;;;;;;5073916;28;20024;-71
2022/08/01 11:17:55;;;;;;;5.55;2.42;;;28.60;34.60;;;;;;5073784;28;20354;-71
2022/08/01 11:20:24;;;;;;;2.90;2.22;;;28.60;35.00;;;;;;5072552;28;20127;-71
2022/08/01 11:23:05;;;;;;;5.75;2.33;;;28.70;34.60;;;;;;5073644;28;20021;-72
2022/08/01 11:25:40;;;;;;;2.33;2.13;;;28.80;32.90;;;;;;5073231;28;20039;-69
2022/08/01 11:28:17;;;;;;;3.67;1.98;;;29.00;33.30;;;;;;5073494;28;20023;-69
2022/08/01 11:30:48;;;;;;;4.43;2.17;;;29.20;32.50;;;;;;5073347;28;20380;-70
2022/08/01 11:33:15;;;;;;;4.20;2.20;;;29.10;32.00;;;;;;5073217;28;20044;-70
2022/08/01 11:36:12;;;;;;;2.15;1.88;;;28.70;33.20;;;;;;5073408;28;20119;-72
2022/08/01 11:38:45;;;;;;;1.42;1.33;;;28.60;33.30;;;;;;5073660;28;20433;-71
2022/08/01 11:41:25;;;;;;;2.53;1.60;;;28.50;32.30;;;;;;5073185;28;20039;-72
2022/08/01 11:43:59;;;;;;;2.22;1.63;;;28.20;32.50;;;;;;5073434;28;20516;-72
2022/08/01 11:46:51;;;;;;;2.25;1.60;;;28.10;32.90;;;;;;5073176;28;20020;-70
2022/08/01 11:49:44;;;;;;;3.65;1.38;;;28.20;33.00;;;;;;5073207;28;20031;-71
2022/08/01 11:52:35;;;;;;;3.58;1.60;;;28.40;32.50;;;;;;5073222;28;20066;-71
2022/08/01 11:55:01;;;;;;;2.40;1.45;;;28.30;32.40;;;;;;5071824;28;20185;-71
2022/08/01 11:57:30;;;;;;;2.42;1.33;;;28.40;31.80;;;;;;5073046;28;20485;-72
2022/08/01 11:59:58;;;;;;;3.67;1.70;;;28.40;30.90;;;;;;5073239;28;20029;-73
2022/08/01 12:02:26;;;;;;;2.60;1.27;;;28.50;30.50;;;;;;5072609;28;20111;-73
2022/08/01 12:04:55;;;;;;;2.53;1.40;;;28.70;30.30;;;;;;5071624;28;20158;-71
2022/08/01 12:07:21;;;;;;;2.45;1.60;;;28.50;29.80;;;;;;5072936;28;20287;-72
2022/08/01 12:09:48;;;;;;;3.53;1.73;;;28.30;30.90;;;;;;5072862;28;20028;-71
2022/08/01 12:12:18;;;;;;;2.17;1.42;;;28.20;30.70;;;;;;5074132;28;20032;-71
2022/08/01 12:14:45;;;;;;;3.70;1.70;;;28.10;30.70;;;;;;5071704;28;20020;-71
2022/08/01 12:17:10;;;;;;;2.20;1.75;;;28.10;31.50;;;;;;5072836;28;20027;-70
2022/08/01 12:19:36;;;;;;;3.17;1.63;;;28.20;31.90;;;;;;5072617;28;20469;-71
2022/08/01 12:22:23;;;;;;;3.88;1.60;;;28.60;30.90;;;;;;5072486;28;20095;-71
2022/08/01 12:24:48;;;;;;;5.88;1.40;;;29.20;30.40;;;;;;5072610;28;20425;-72
2022/08/01 12:27:25;;;;;;;1.88;1.40;;;29.60;28.20;;;;;;5072490;28;20035;-71
2022/08/01 12:29:51;;;;;;;1.42;1.30;;;30.00;27.40;;;;;;5072559;28;20082;-71
2022/08/01 12:32:36;;;;;;;1.50;1.40;;;30.10;26.60;;;;;;5071992;28;20044;-71
2022/08/01 12:35:10;;;;;;;2.80;1.20;;;29.90;26.10;;;;;;5072352;28;20024;-71
2022/08/01 12:37:44;;;;;;;1.30;1.13;;;29.90;25.10;;;;;;5072404;28;20066;-72
2022/08/01 12:40:12;;;;;;;1.17;0.95;;;29.90;24.90;;;;;;5072236;28;20029;-72
2022/08/01 12:42:39;;;;;;;3.03;1.15;;;29.80;24.10;;;;;;5072148;28;20021;-72
2022/08/01 12:45:07;;;;;;;2.25;0.98;;;29.90;23.40;;;;;;5071489;28;20124;-72
2022/08/01 12:47:34;;;;;;;2.38;1.15;;;30.00;23.50;;;;;;5072313;28;20021;-72
2022/08/01 12:50:00;;;;;;;2.35;1.00;;;29.90;23.90;;;;;;5072241;28;20236;-73
2022/08/01 12:52:26;;;;;;;5.13;1.23;;;29.60;25.10;;;;;;5071902;28;20064;-72
2022/08/01 12:55:06;;;;;;;2.17;1.30;;;29.40;25.20;;;;;;5072122;28;20029;-73